Time;durP1;ratioP1;P1;durP2;ratioP2;P2;SDS_P1;SDS_P2;PMS_P1;PMS_P2;Temp;Humidity;BMP_temperature;BMP_pressure;BME280_temperature;BME280_humidity;BME280_pressure;Samples;Min_cycle;Max_cycle;Signal;HPM_P1;HPM_P2
2021/06/13 00:00:49;;;;;;;15.47;5.17;;;;;;;15.24;60.69;98496.78;125668;1093;103016;-79
2021/06/13 00:03:25;;;;;;;9.90;5.77;;;;;;;15.22;60.75;98503.31;125706;1092;102888;-77
2021/06/13 00:05:53;;;;;;;9.57;5.30;;;;;;;15.18;60.74;98502.77;125645;1094;103448;-78
2021/06/13 00:08:21;;;;;;;9.70;5.17;;;;;;;15.16;60.70;98516.33;125682;1093;102911;-78
2021/06/13 00:10:50;;;;;;;11.93;6.00;;;;;;;15.13;60.71;98511.27;125731;1096;104509;-76
2021/06/13 00:13:19;;;;;;;8.37;4.60;;;;;;;15.10;60.83;98508.05;125655;1096;103006;-80
2021/06/13 00:15:47;;;;;;;11.30;6.13;;;;;;;15.07;60.97;98509.20;125695;1093;103502;-77
2021/06/13 00:18:20;;;;;;;13.17;5.90;;;;;;;15.06;61.14;98520.91;125653;1093;102939;-76
2021/06/13 00:20:51;;;;;;;14.37;5.73;;;;;;;15.03;61.06;98522.08;125654;1093;103008;-76
2021/06/13 00:23:20;;;;;;;11.93;5.70;;;;;;;15.02;61.00;98524.89;125665;1093;103019;-76
2021/06/13 00:25:49;;;;;;;14.70;5.77;;;;;;;15.01;61.19;98515.17;125622;1092;103103;-77
2021/06/13 00:28:17;;;;;;;12.60;5.83;;;;;;;14.96;61.18;98518.33;125680;1093;102995;-76
2021/06/13 00:30:47;;;;;;;14.17;6.30;;;;;;;14.96;61.50;98537.07;125703;1092;102911;-75
2021/06/13 00:33:16;;;;;;;9.20;5.33;;;;;;;14.96;61.39;98521.00;125612;1091;102911;-76
2021/06/13 00:35:45;;;;;;;12.47;5.83;;;;;;;14.94;61.74;98531.03;125587;1096;103030;-77
2021/06/13 00:38:13;;;;;;;13.50;6.40;;;;;;;14.92;61.46;98534.83;125594;1095;102965;-78
2021/06/13 00:40:42;;;;;;;17.80;6.47;;;;;;;14.89;61.57;98526.11;125700;1093;103002;-78
2021/06/13 00:43:10;;;;;;;10.93;5.90;;;;;;;14.87;61.57;98525.45;125626;1094;103103;-77
2021/06/13 00:45:38;;;;;;;11.97;5.33;;;;;;;14.85;61.74;98530.11;125700;1095;102911;-79
2021/06/13 00:48:07;;;;;;;15.70;5.67;;;;;;;14.83;61.87;98525.89;125704;1093;103147;-80
2021/06/13 00:50:57;;;;;;;15.00;5.97;;;;;;;14.80;61.94;98535.08;125626;1093;103435;-76
2021/06/13 00:53:28;;;;;;;9.37;5.50;;;;;;;14.73;61.83;98532.14;125664;1093;102937;-76
2021/06/13 00:56:01;;;;;;;9.15;5.60;;;;;;;14.68;61.87;98529.05;125641;1096;103061;-77
2021/06/13 00:58:31;;;;;;;10.70;5.63;;;;;;;14.64;62.05;98529.52;125668;1096;103009;-77
2021/06/13 01:00:59;;;;;;;11.87;5.83;;;;;;;14.61;62.16;98535.16;125683;1096;103012;-77
2021/06/13 01:03:28;;;;;;;11.47;5.63;;;;;;;14.60;62.12;98542.37;125666;1093;103036;-76
2021/06/13 01:05:56;;;;;;;13.37;6.30;;;;;;;14.55;62.02;98533.94;125663;1095;102973;-77
2021/06/13 01:08:45;;;;;;;12.93;5.80;;;;;;;14.48;62.14;98531.00;125657;1093;102913;-75
2021/06/13 01:11:37;;;;;;;10.97;5.40;;;;;;;14.38;62.07;98549.80;125672;1096;103087;-76
2021/06/13 01:14:12;;;;;;;11.43;5.43;;;;;;;14.31;62.08;98545.20;125648;1095;103031;-76
2021/06/13 01:17:05;;;;;;;12.13;5.70;;;;;;;14.25;62.35;98543.97;125583;1094;102998;-75
2021/06/13 01:19:43;;;;;;;9.23;5.03;;;;;;;14.18;62.13;98553.57;125699;1093;103045;-76
2021/06/13 01:22:48;;;;;;;9.37;5.00;;;;;;;14.09;62.28;98555.27;125622;1094;102950;-76
2021/06/13 01:25:26;;;;;;;11.37;5.10;;;;;;;14.05;62.30;98554.73;125586;1095;103026;-76
2021/06/13 01:28:29;;;;;;;9.60;5.03;;;;;;;14.03;62.47;98554.04;125672;1096;103049;-78
2021/06/13 01:31:01;;;;;;;8.13;4.27;;;;;;;13.99;62.82;98572.22;125630;1094;103008;-79
2021/06/13 01:33:34;;;;;;;12.73;5.40;;;;;;;13.94;62.50;98570.95;126649;1094;102914;-78
2021/06/13 01:36:04;;;;;;;10.33;4.93;;;;;;;13.89;62.78;98566.05;125694;1096;102929;-78
2021/06/13 01:38:34;;;;;;;12.30;5.30;;;;;;;13.86;62.81;98577.03;125683;1095;102977;-78
2021/06/13 01:41:11;;;;;;;12.63;5.37;;;;;;;13.83;62.59;98562.14;125592;1095;103100;-79
2021/06/13 01:43:42;;;;;;;9.13;4.83;;;;;;;13.79;62.87;98567.91;126282;1096;103010;-77
2021/06/13 01:46:13;;;;;;;13.87;5.17;;;;;;;13.77;62.95;98572.55;125683;1095;102916;-78
2021/06/13 01:48:47;;;;;;;12.90;5.10;;;;;;;13.75;63.02;98566.50;125640;1096;103097;-78
2021/06/13 01:51:18;;;;;;;13.87;5.60;;;;;;;13.72;62.96;98569.46;125665;1096;102912;-78
2021/06/13 01:53:46;;;;;;;10.07;4.60;;;;;;;13.70;62.99;98589.16;125698;1094;103029;-76
2021/06/13 01:56:19;;;;;;;10.93;5.27;;;;;;;13.63;63.06;98579.19;125671;1095;102995;-78
2021/06/13 01:58:51;;;;;;;11.17;5.50;;;;;;;13.59;62.91;98585.81;125681;1095;102932;-78
2021/06/13 02:01:24;;;;;;;13.60;5.40;;;;;;;13.52;63.18;98593.56;125618;1096;102998;-78
2021/06/13 02:03:58;;;;;;;8.43;4.57;;;;;;;13.47;63.33;98585.95;125677;1092;102934;-80
2021/06/13 02:06:35;;;;;;;11.95;5.13;;;;;;;13.43;63.25;98597.08;125666;1094;102935;-78
2021/06/13 02:09:07;;;;;;;12.77;5.20;;;;;;;13.40;63.45;98603.53;125667;1096;103016;-77
2021/06/13 02:11:43;;;;;;;12.40;6.07;;;;;;;13.37;63.49;98604.63;125675;1095;102945;-76
2021/06/13 02:14:12;;;;;;;12.90;5.60;;;;;;;13.36;63.31;98597.61;125643;1096;103011;-78
2021/06/13 02:16:44;;;;;;;15.20;5.87;;;;;;;13.34;63.46;98601.41;125678;1093;102924;-77
2021/06/13 02:19:18;;;;;;;11.80;5.50;;;;;;;13.33;63.46;98594.38;125669;1093;102909;-77
2021/06/13 02:21:51;;;;;;;10.77;5.77;;;;;;;13.29;63.50;98604.48;126152;1093;103028;-78
2021/06/13 02:24:27;;;;;;;12.67;5.63;;;;;;;13.28;63.70;98613.48;125661;1092;103402;-78
2021/06/13 02:26:58;;;;;;;14.07;5.83;;;;;;;13.27;63.78;98613.64;125786;1093;102929;-76
2021/06/13 02:29:30;;;;;;;15.00;7.17;;;;;;;13.24;63.56;98623.62;126387;1096;102997;-78
2021/06/13 02:32:05;;;;;;;14.17;6.73;;;;;;;13.22;63.85;98622.08;125696;1096;102916;-76
2021/06/13 02:34:37;;;;;;;12.07;5.87;;;;;;;13.21;63.77;98623.06;125637;1094;103034;-75
2021/06/13 02:37:08;;;;;;;12.10;6.00;;;;;;;13.18;63.86;98628.69;125640;1096;102911;-75
2021/06/13 02:39:38;;;;;;;13.03;5.60;;;;;;;13.17;63.65;98627.82;125727;1094;103345;-75
2021/06/13 02:42:09;;;;;;;14.80;6.97;;;;;;;13.15;63.74;98635.13;125696;1095;102929;-77
2021/06/13 02:44:37;;;;;;;17.00;7.07;;;;;;;13.15;64.11;98632.45;125670;1096;103119;-76
2021/06/13 02:47:07;;;;;;;13.53;6.43;;;;;;;13.15;64.25;98628.95;125613;1093;103010;-75
2021/06/13 02:49:36;;;;;;;13.80;6.57;;;;;;;13.18;64.30;98637.52;125611;1096;102818;-75
2021/06/13 02:52:28;;;;;;;16.80;6.70;;;;;;;13.22;64.01;98635.44;125604;1096;103006;-78
2021/06/13 02:55:02;;;;;;;15.57;6.43;;;;;;;13.24;64.19;98634.30;125665;1096;103026;-78
2021/06/13 02:57:42;;;;;;;17.60;7.27;;;;;;;13.26;64.18;98634.14;125656;1095;102994;-78
2021/06/13 03:00:13;;;;;;;17.90;7.50;;;;;;;13.27;64.31;98641.17;125687;1093;102961;-77
2021/06/13 03:02:47;;;;;;;16.37;7.03;;;;;;;13.29;64.35;98638.38;125665;1093;102920;-77
2021/06/13 03:05:25;;;;;;;18.17;8.20;;;;;;;13.30;64.39;98634.73;125697;1093;103036;-77
2021/06/13 03:07:56;;;;;;;18.77;8.57;;;;;;;13.32;64.36;98638.93;125679;1093;102916;-77
2021/06/13 03:10:28;;;;;;;17.97;8.77;;;;;;;13.32;64.36;98640.77;125672;1093;103182;-77
2021/06/13 03:13:02;;;;;;;16.20;7.93;;;;;;;13.31;64.23;98639.09;125656;1093;102945;-77
2021/06/13 03:15:33;;;;;;;17.60;8.30;;;;;;;13.29;64.37;98639.21;125735;1093;103027;-76
2021/06/13 03:18:03;;;;;;;17.80;8.03;;;;;;;13.32;64.40;98635.44;125702;1093;102919;-77
2021/06/13 03:20:33;;;;;;;15.23;7.70;;;;;;;13.32;64.69;98643.45;125730;1092;103027;-77
2021/06/13 03:23:04;;;;;;;15.07;7.60;;;;;;;13.33;64.73;98647.80;125707;1093;103026;-77
2021/06/13 03:25:33;;;;;;;17.60;7.77;;;;;;;13.33;64.68;98639.80;125676;1096;103017;-77
2021/06/13 03:28:04;;;;;;;15.57;8.20;;;;;;;13.34;64.67;98652.16;125701;1093;103064;-80
2021/06/13 03:30:35;;;;;;;19.47;8.40;;;;;;;13.33;64.66;98656.64;125684;1096;102948;-77
2021/06/13 03:33:08;;;;;;;16.03;7.83;;;;;;;13.33;64.67;98661.16;125692;1093;103042;-77
2021/06/13 03:35:38;;;;;;;19.03;8.37;;;;;;;13.34;64.87;98660.18;125695;1093;102911;-77
2021/06/13 03:38:08;;;;;;;14.33;7.33;;;;;;;13.35;64.57;98654.69;125663;1093;102918;-79
2021/06/13 03:40:41;;;;;;;14.87;6.93;;;;;;;13.34;64.74;98661.01;125711;1093;102906;-77
2021/06/13 03:43:12;;;;;;;15.73;7.73;;;;;;;13.36;64.81;98671.57;125680;1093;103158;-76
2021/06/13 03:45:43;;;;;;;17.17;7.60;;;;;;;13.36;64.97;98668.90;125725;1096;103096;-75
2021/06/13 03:48:14;;;;;;;13.23;6.50;;;;;;;13.35;64.95;98665.37;125688;1096;103090;-79
2021/06/13 03:50:46;;;;;;;18.50;8.27;;;;;;;13.35;65.15;98669.88;125651;1096;102904;-78
2021/06/13 03:53:17;;;;;;;14.53;6.87;;;;;;;13.36;64.95;98674.23;125682;1093;102913;-76
2021/06/13 03:55:45;;;;;;;17.80;7.73;;;;;;;13.35;65.15;98677.89;125672;1093;103020;-77
2021/06/13 03:58:15;;;;;;;23.87;8.17;;;;;;;13.36;65.12;98674.23;125693;1093;103007;-77
2021/06/13 04:00:46;;;;;;;13.70;6.00;;;;;;;13.36;64.78;98680.41;125627;1095;103021;-77
2021/06/13 04:03:19;;;;;;;14.10;5.93;;;;;;;13.35;65.17;98680.56;125627;1093;103127;-77
2021/06/13 04:05:50;;;;;;;14.10;6.50;;;;;;;13.34;65.07;98682.38;125692;1093;103071;-77
2021/06/13 04:08:22;;;;;;;19.60;6.35;;;;;;;13.33;65.06;98678.02;125661;1093;102910;-76
2021/06/13 04:10:54;;;;;;;17.17;5.57;;;;;;;13.33;65.13;98686.03;125701;1093;102916;-77
2021/06/13 04:13:23;;;;;;;13.97;5.60;;;;;;;13.32;65.11;98691.52;125637;1092;103374;-75
2021/06/13 04:15:54;;;;;;;15.83;5.47;;;;;;;13.29;64.93;98699.81;125616;1093;102911;-77
2021/06/13 04:18:24;;;;;;;10.35;4.65;;;;;;;13.28;64.98;98700.80;125656;1093;102913;-77
2021/06/13 04:20:52;;;;;;;13.77;4.70;;;;;;;13.27;65.04;98699.10;125825;1093;102913;-78
2021/06/13 04:23:21;;;;;;;11.37;5.07;;;;;;;13.28;65.04;98701.63;125710;1093;103015;-79
2021/06/13 04:25:51;;;;;;;13.90;4.50;;;;;;;13.29;65.06;98705.16;125714;1094;103067;-78
2021/06/13 04:28:19;;;;;;;13.30;4.40;;;;;;;13.27;64.91;98707.95;125640;1092;102913;-78
2021/06/13 04:31:13;;;;;;;14.80;4.60;;;;;;;13.29;65.09;98710.50;125651;1093;102912;-75
2021/06/13 04:33:45;;;;;;;11.10;4.10;;;;;;;13.29;65.20;98705.98;125593;1093;103008;-76
2021/06/13 04:36:17;;;;;;;10.63;4.30;;;;;;;13.30;65.16;98705.00;125549;1094;102978;-79
2021/06/13 04:38:46;;;;;;;15.60;4.53;;;;;;;13.28;65.10;98704.30;125662;1093;103064;-77
2021/06/13 04:41:16;;;;;;;9.83;3.97;;;;;;;13.28;64.94;98708.81;125639;1091;103151;-77
2021/06/13 04:43:46;;;;;;;16.00;4.03;;;;;;;13.28;65.04;98698.95;125636;1093;103005;-75
2021/06/13 04:46:17;;;;;;;14.87;4.30;;;;;;;13.30;64.96;98704.17;125636;1093;102999;-77
2021/06/13 04:48:49;;;;;;;13.57;4.30;;;;;;;13.27;64.90;98713.28;125658;1092;102938;-75
2021/06/13 04:51:20;;;;;;;12.07;4.63;;;;;;;13.27;65.04;98709.78;125645;1093;101808;-75
2021/06/13 04:54:02;;;;;;;17.57;4.53;;;;;;;13.29;65.12;98716.66;125526;1093;102978;-76
2021/06/13 04:56:38;;;;;;;11.85;4.35;;;;;;;13.31;64.96;98716.55;125654;1093;103028;-76
2021/06/13 04:59:06;;;;;;;13.13;4.30;;;;;;;13.34;64.99;98716.27;125571;1093;103035;-74
2021/06/13 05:01:39;;;;;;;18.50;5.00;;;;;;;13.36;64.90;98714.31;125614;1095;102932;-67
2021/06/13 05:04:08;;;;;;;11.28;4.73;;;;;;;13.39;64.92;98722.88;125634;1093;103009;-69
2021/06/13 05:06:44;;;;;;;13.20;4.17;;;;;;;13.47;65.29;98724.05;125607;1093;103000;-71
2021/06/13 05:09:13;;;;;;;14.13;4.40;;;;;;;13.57;65.20;98719.56;125642;1096;103164;-70
2021/06/13 05:11:42;;;;;;;13.73;4.07;;;;;;;13.63;64.93;98727.03;125643;1093;103416;-70
2021/06/13 05:14:11;;;;;;;14.07;4.33;;;;;;;13.70;65.22;98719.29;125737;1093;102925;-70
2021/06/13 05:16:41;;;;;;;11.77;4.50;;;;;;;13.79;65.16;98723.80;125740;1093;102990;-70
2021/06/13 05:19:10;;;;;;;11.27;3.80;;;;;;;13.86;65.08;98720.56;125642;1093;102983;-72
2021/06/13 05:21:38;;;;;;;14.73;4.37;;;;;;;13.89;65.07;98733.63;125713;1093;103505;-72
2021/06/13 05:24:08;;;;;;;12.23;4.70;;;;;;;13.93;64.88;98743.91;125677;1093;102995;-69
2021/06/13 05:26:36;;;;;;;14.37;4.37;;;;;;;14.00;65.08;98736.16;125694;1092;102958;-72
2021/06/13 05:29:06;;;;;;;15.30;4.43;;;;;;;14.05;64.86;98738.42;125639;1094;103053;-74
2021/06/13 05:31:35;;;;;;;14.37;4.63;;;;;;;14.08;64.70;98733.63;125655;1093;103053;-76
2021/06/13 05:34:04;;;;;;;13.53;4.13;;;;;;;14.17;64.94;98744.45;125708;1092;103065;-73
2021/06/13 05:36:32;;;;;;;16.20;4.40;;;;;;;14.22;64.86;98743.03;125690;1093;102939;-75
2021/06/13 05:39:00;;;;;;;8.43;3.73;;;;;;;14.24;64.63;98724.18;125677;1093;102935;-73
2021/06/13 05:41:29;;;;;;;11.97;4.53;;;;;;;14.14;64.45;98753.59;125702;1092;103061;-73
2021/06/13 05:44:01;;;;;;;13.30;4.53;;;;;;;14.02;64.67;98755.58;125639;1095;103085;-74
2021/06/13 05:46:31;;;;;;;18.17;4.60;;;;;;;13.95;64.68;98744.62;125684;1095;103012;-73
2021/06/13 05:49:00;;;;;;;12.67;3.83;;;;;;;13.97;64.43;98760.50;125702;1096;102942;-75
2021/06/13 05:51:28;;;;;;;12.43;3.70;;;;;;;14.03;64.31;98761.78;125726;1092;103012;-74
2021/06/13 05:53:57;;;;;;;13.87;4.43;;;;;;;14.04;64.30;98755.45;125695;1096;103070;-75
2021/06/13 05:56:25;;;;;;;10.63;3.83;;;;;;;14.07;64.37;98764.02;125656;1093;103044;-75
2021/06/13 05:58:54;;;;;;;14.83;3.57;;;;;;;14.11;64.41;98760.09;125703;1093;103006;-72
2021/06/13 06:01:22;;;;;;;13.87;4.47;;;;;;;14.23;64.52;98766.13;125666;1093;103054;-74
2021/06/13 06:03:50;;;;;;;9.87;3.30;;;;;;;14.29;64.25;98770.91;125668;1093;102989;-75
2021/06/13 06:06:19;;;;;;;10.67;3.70;;;;;;;14.28;64.26;98765.67;125709;1092;103063;-74
2021/06/13 06:08:47;;;;;;;11.03;3.67;;;;;;;14.26;64.17;98765.01;125657;1095;103163;-75
2021/06/13 06:11:15;;;;;;;12.63;3.90;;;;;;;14.22;63.99;98771.63;125666;1096;103068;-76
2021/06/13 06:13:44;;;;;;;16.67;4.23;;;;;;;14.17;63.94;98776.55;125647;1095;102938;-75
2021/06/13 06:16:12;;;;;;;13.90;3.97;;;;;;;14.16;63.84;98778.37;125671;1094;102938;-72
2021/06/13 06:18:40;;;;;;;14.47;4.03;;;;;;;14.18;63.84;98784.42;125679;1095;103142;-70
2021/06/13 06:21:09;;;;;;;12.77;4.43;;;;;;;14.23;63.94;98776.82;125615;1095;102997;-73
2021/06/13 06:23:37;;;;;;;13.97;3.77;;;;;;;14.33;63.77;98784.00;125751;1096;102916;-76
2021/06/13 06:26:05;;;;;;;10.17;3.77;;;;;;;14.41;63.97;98787.64;125705;1093;103148;-75
2021/06/13 06:28:34;;;;;;;15.30;4.23;;;;;;;14.45;63.76;98793.56;125666;1093;102962;-72
2021/06/13 06:31:02;;;;;;;10.83;3.70;;;;;;;14.43;63.47;98796.36;125661;1095;102988;-73
2021/06/13 06:33:31;;;;;;;8.87;3.47;;;;;;;14.36;63.58;98797.92;125621;1093;102937;-72
2021/06/13 06:36:00;;;;;;;11.20;3.33;;;;;;;14.31;63.44;98792.15;125647;1093;102905;-72
2021/06/13 06:38:29;;;;;;;12.63;3.63;;;;;;;14.39;63.63;98812.86;125573;1093;103358;-72
2021/06/13 06:40:59;;;;;;;12.07;3.60;;;;;;;14.61;63.48;98800.13;125581;1095;103069;-74
2021/06/13 06:43:27;;;;;;;11.90;3.60;;;;;;;14.84;63.48;98796.18;125828;1093;102985;-80
2021/06/13 06:45:55;;;;;;;11.27;3.33;;;;;;;14.98;63.46;98794.86;125710;1096;102965;-75
2021/06/13 06:48:25;;;;;;;13.17;3.53;;;;;;;15.10;63.30;98803.55;125601;1096;103002;-75
2021/06/13 06:50:53;;;;;;;12.57;3.60;;;;;;;15.10;63.29;98791.97;125605;1094;102932;-78
2021/06/13 06:53:22;;;;;;;12.33;3.17;;;;;;;15.09;63.13;98817.92;125782;1092;103064;-75
2021/06/13 06:55:50;;;;;;;9.20;3.20;;;;;;;15.08;62.79;98810.05;125695;1093;103012;-74
2021/06/13 06:58:19;;;;;;;12.30;3.47;;;;;;;15.02;62.95;98806.97;125649;1093;103000;-74
2021/06/13 07:00:47;;;;;;;11.00;3.87;;;;;;;14.94;62.73;98812.20;125668;1093;102945;-75
2021/06/13 07:03:15;;;;;;;10.13;3.80;;;;;;;14.89;62.86;98811.80;125656;1095;103009;-75
2021/06/13 07:05:43;;;;;;;7.63;3.47;;;;;;;14.83;62.71;98821.27;125677;1096;102940;-83
2021/06/13 07:08:12;;;;;;;11.30;3.60;;;;;;;14.74;62.70;98816.77;125802;1095;103090;-77
2021/06/13 07:10:40;;;;;;;13.37;3.70;;;;;;;14.83;62.80;98823.08;125665;1095;103406;-74
2021/06/13 07:13:09;;;;;;;11.60;3.97;;;;;;;15.06;62.75;98825.42;125700;1096;102916;-74
2021/06/13 07:15:39;;;;;;;10.70;4.00;;;;;;;15.06;62.53;98820.90;125636;1095;103087;-74
2021/06/13 07:18:08;;;;;;;10.00;4.17;;;;;;;15.31;62.65;98819.39;125727;1096;103019;-75
2021/06/13 07:20:36;;;;;;;16.97;4.03;;;;;;;15.48;62.62;98828.47;125627;1094;103014;-75
2021/06/13 07:23:05;;;;;;;10.23;3.67;;;;;;;15.55;62.48;98823.34;125627;1095;102974;-74
2021/06/13 07:25:34;;;;;;;10.23;3.60;;;;;;;15.51;62.24;98839.88;125654;1092;103064;-75
2021/06/13 07:28:05;;;;;;;15.03;3.73;;;;;;;15.46;62.23;98843.85;125701;1094;102993;-75
2021/06/13 07:30:35;;;;;;;12.30;3.40;;;;;;;15.44;62.21;98835.11;125690;1095;102913;-75
2021/06/13 07:33:05;;;;;;;12.27;3.57;;;;;;;15.51;62.09;98837.20;125676;1095;103127;-76
2021/06/13 07:35:33;;;;;;;11.83;3.77;;;;;;;15.86;62.08;98835.58;125638;1096;103026;-77
2021/06/13 07:38:03;;;;;;;12.05;3.70;;;;;;;16.24;62.28;98835.48;125682;1095;102951;-77
2021/06/13 07:40:33;;;;;;;12.13;3.43;;;;;;;16.55;62.04;98848.49;125682;1096;102970;-75
2021/06/13 07:43:02;;;;;;;8.93;3.60;;;;;;;16.58;61.68;98848.19;125682;1094;103001;-73
2021/06/13 07:45:30;;;;;;;10.37;3.10;;;;;;;16.67;62.04;98848.08;125556;1096;103039;-74
2021/06/13 07:47:58;;;;;;;10.93;3.43;;;;;;;16.86;61.71;98843.53;125510;1093;103037;-73
2021/06/13 07:50:27;;;;;;;10.83;3.47;;;;;;;16.82;61.71;98837.61;125710;1095;102923;-76
2021/06/13 07:52:55;;;;;;;9.87;3.50;;;;;;;16.66;61.33;98838.34;125631;1095;103038;-74
2021/06/13 07:55:27;;;;;;;12.53;3.70;;;;;;;16.37;60.92;98847.52;125610;1096;103080;-68
2021/06/13 07:57:55;;;;;;;12.10;3.60;;;;;;;16.05;61.09;98856.95;125573;1095;102986;-73
2021/06/13 08:00:24;;;;;;;13.00;3.83;;;;;;;15.91;60.96;98860.14;125569;1096;103150;-74
2021/06/13 08:02:54;;;;;;;8.67;3.97;;;;;;;15.81;60.86;98862.00;125551;1096;103099;-73
2021/06/13 08:05:28;;;;;;;11.37;3.63;;;;;;;15.74;60.78;98862.60;125524;1095;103042;-72
2021/06/13 08:08:00;;;;;;;14.30;4.30;;;;;;;15.74;60.66;98865.28;125633;1096;103524;-74
2021/06/13 08:10:30;;;;;;;12.77;4.10;;;;;;;15.86;60.49;98874.02;125665;1095;103020;-74
2021/06/13 08:12:59;;;;;;;9.37;3.50;;;;;;;15.81;60.43;98870.05;125611;1096;103050;-74
2021/06/13 08:15:31;;;;;;;10.55;3.70;;;;;;;16.51;59.73;98869.42;125671;1095;103068;-74
2021/06/13 08:18:00;;;;;;;12.70;4.30;;;;;;;16.62;60.15;98871.87;125395;1096;102914;-74
2021/06/13 08:20:28;;;;;;;10.97;4.60;;;;;;;17.02;60.15;98883.12;125462;1094;102999;-72
2021/06/13 08:22:57;;;;;;;11.80;3.97;;;;;;;17.04;60.19;98897.23;125428;1095;103007;-72
2021/06/13 08:25:27;;;;;;;12.53;4.40;;;;;;;16.90;60.34;98893.25;125441;1096;103051;-71
2021/06/13 08:27:56;;;;;;;9.03;3.47;;;;;;;16.69;59.85;98887.36;125633;1095;102916;-71
2021/06/13 08:30:26;;;;;;;17.23;4.13;;;;;;;16.42;59.72;98895.36;125641;1096;103001;-71
2021/06/13 08:32:58;;;;;;;14.47;4.50;;;;;;;16.15;59.78;98902.48;125687;1096;103034;-73
2021/06/13 08:35:29;;;;;;;9.90;4.10;;;;;;;15.89;59.72;98897.86;125688;1095;103052;-71
2021/06/13 08:38:01;;;;;;;10.70;3.90;;;;;;;15.68;59.76;98898.08;125516;1096;103010;-71
2021/06/13 08:40:32;;;;;;;14.65;4.30;;;;;;;15.59;59.59;98907.01;125626;1096;102795;-75
2021/06/13 08:43:01;;;;;;;10.97;4.10;;;;;;;15.67;59.72;98906.26;125592;1096;102918;-65
2021/06/13 08:45:37;;;;;;;14.73;4.50;;;;;;;15.85;59.84;98904.48;125644;1094;102907;-63
2021/06/13 08:48:10;;;;;;;13.03;4.20;;;;;;;16.02;59.61;98910.05;125580;1095;103061;-66
2021/06/13 08:50:39;;;;;;;;;;;;;;;16.12;59.46;98907.30;125619;1093;102914;-63
2021/06/13 08:53:08;;;;;;;15.70;4.47;;;;;;;16.19;59.73;98913.75;125661;1096;103428;-64
2021/06/13 08:55:36;;;;;;;13.73;4.17;;;;;;;16.18;59.29;98917.42;125534;1096;103687;-65
2021/06/13 08:58:06;;;;;;;14.10;4.30;;;;;;;16.11;59.28;98910.97;125562;1096;102924;-64
2021/06/13 09:00:35;;;;;;;13.80;4.50;;;;;;;16.21;59.31;98923.35;125604;1096;103054;-64
2021/06/13 09:03:06;;;;;;;14.60;4.27;;;;;;;16.48;58.90;98921.59;125633;1093;102932;-64
2021/06/13 09:05:35;;;;;;;10.07;4.40;;;;;;;16.65;58.79;98919.90;125624;1093;102943;-63
2021/06/13 09:08:14;;;;;;;11.47;4.20;;;;;;;16.99;58.94;98912.13;125623;1092;103064;-64
2021/06/13 09:10:46;;;;;;;12.77;4.00;;;;;;;17.32;59.03;98921.25;125589;1093;103684;-63
2021/06/13 09:13:16;;;;;;;13.43;4.67;;;;;;;17.30;58.86;98917.88;125579;1096;102936;-64
2021/06/13 09:15:47;;;;;;;11.77;3.83;;;;;;;17.15;58.36;98930.20;125556;1093;103198;-70
2021/06/13 09:18:39;;;;;;;12.50;4.00;;;;;;;16.88;58.19;98914.05;125473;1093;102908;-71
2021/06/13 09:21:28;;;;;;;9.03;3.47;;;;;;;16.59;58.07;98917.83;125525;1093;103425;-72
2021/06/13 09:23:58;;;;;;;14.07;3.73;;;;;;;16.43;58.43;98923.06;125580;1094;102921;-70
2021/06/13 09:26:29;;;;;;;8.90;3.50;;;;;;;16.24;57.85;98937.46;125626;1092;103031;-71
2021/06/13 09:28:58;;;;;;;10.70;3.67;;;;;;;16.03;57.81;98934.05;125506;1092;103029;-71
2021/06/13 09:31:30;;;;;;;10.37;3.77;;;;;;;15.89;57.87;98927.36;125536;1093;102941;-70
2021/06/13 09:34:00;;;;;;;14.20;3.93;;;;;;;15.78;58.08;98936.39;125624;1093;103010;-69
2021/06/13 09:36:31;;;;;;;9.60;3.77;;;;;;;15.76;58.05;98942.91;125674;1093;102919;-70
2021/06/13 09:39:12;;;;;;;14.50;4.10;;;;;;;15.74;57.91;98937.68;125632;1093;103009;-70
2021/06/13 09:41:45;;;;;;;10.93;3.70;;;;;;;15.70;57.91;98936.28;125645;1095;102943;-70
2021/06/13 09:44:15;;;;;;;;;;;;;;;15.69;57.73;98936.45;125741;1093;103122;-70
2021/06/13 09:46:49;;;;;;;10.10;3.97;;;;;;;15.68;57.65;98932.94;125681;1096;103006;-70
2021/06/13 09:49:20;;;;;;;8.43;3.30;;;;;;;15.68;57.60;98940.98;125762;1093;102928;-71
2021/06/13 09:51:53;;;;;;;12.30;3.50;;;;;;;15.67;57.38;98943.80;125626;1093;103562;-71
2021/06/13 09:54:27;;;;;;;15.67;4.50;;;;;;;15.65;57.39;98937.73;125527;1092;103022;-70
2021/06/13 09:57:01;;;;;;;12.07;3.83;;;;;;;15.62;57.42;98949.61;125635;1093;103033;-71
2021/06/13 09:59:33;;;;;;;8.83;4.13;;;;;;;15.63;57.39;98945.94;125613;1094;102912;-70
2021/06/13 10:02:06;;;;;;;8.77;3.63;;;;;;;15.66;57.49;98951.01;125543;1093;102945;-72
2021/06/13 10:04:42;;;;;;;8.83;3.27;;;;;;;15.69;57.37;98955.22;125436;1093;103037;-70
2021/06/13 10:07:16;;;;;;;13.27;4.23;;;;;;;15.69;57.35;98950.69;125606;1095;103026;-70
2021/06/13 10:09:51;;;;;;;15.27;4.27;;;;;;;15.66;57.17;98947.47;125630;1095;103067;-70
2021/06/13 10:12:21;;;;;;;14.93;4.43;;;;;;;15.63;57.09;98953.98;125658;1096;103003;-71
2021/06/13 10:14:52;;;;;;;10.67;4.13;;;;;;;15.61;57.21;98951.43;125652;1095;103000;-74
2021/06/13 10:17:32;;;;;;;10.43;3.73;;;;;;;15.64;57.29;98955.67;125647;1095;103196;-68
2021/06/13 10:20:03;;;;;;;14.10;4.03;;;;;;;15.67;57.21;98960.74;125608;1095;102972;-70
2021/06/13 10:22:33;;;;;;;11.07;3.87;;;;;;;15.71;57.10;98959.42;125687;1096;102939;-71
2021/06/13 10:25:02;;;;;;;14.17;4.00;;;;;;;15.73;57.04;98961.98;125708;1095;102914;-71
2021/06/13 10:27:30;;;;;;;10.80;3.30;;;;;;;15.76;57.03;98965.20;125530;1094;103000;-71
2021/06/13 10:30:00;;;;;;;8.43;3.37;;;;;;;15.83;56.89;98956.56;125353;1096;103087;-71
2021/06/13 10:32:29;;;;;;;13.40;3.77;;;;;;;15.85;56.98;98962.63;125510;1096;103058;-71
2021/06/13 10:34:59;;;;;;;13.80;3.70;;;;;;;15.90;57.24;98963.06;125616;1096;103090;-69
2021/06/13 10:37:28;;;;;;;9.40;3.50;;;;;;;16.03;56.96;98962.70;125590;1095;103374;-71
2021/06/13 10:39:58;;;;;;;12.03;4.03;;;;;;;16.27;57.07;98972.05;125581;1096;102950;-71
2021/06/13 10:42:27;;;;;;;14.57;4.10;;;;;;;16.48;56.91;98974.45;125522;1096;102977;-70
2021/06/13 10:44:56;;;;;;;10.33;3.80;;;;;;;16.63;56.70;98967.54;125619;1096;101810;-71
2021/06/13 10:47:28;;;;;;;12.43;4.13;;;;;;;16.75;57.04;98970.00;125679;1095;103068;-69
2021/06/13 10:49:57;;;;;;;11.63;3.77;;;;;;;16.85;56.79;98977.97;125676;1096;103064;-70
2021/06/13 10:52:28;;;;;;;17.97;4.40;;;;;;;16.86;56.55;98972.46;125687;1096;103021;-70
2021/06/13 10:55:00;;;;;;;14.90;3.87;;;;;;;16.93;56.92;98968.13;125590;1093;103079;-71
2021/06/13 10:57:34;;;;;;;12.50;4.00;;;;;;;17.09;56.92;98970.17;125401;1094;104867;-71
2021/06/13 11:00:19;;;;;;;13.40;3.80;;;;;;;17.15;56.40;98967.83;125593;1095;103072;-71
2021/06/13 11:03:00;;;;;;;12.50;3.40;;;;;;;17.13;56.73;98975.20;125618;1093;102917;-69
2021/06/13 11:05:44;;;;;;;11.63;4.37;;;;;;;17.02;56.42;98971.78;125657;1093;102935;-69
2021/06/13 11:08:16;;;;;;;15.13;3.70;;;;;;;16.92;56.63;98971.81;125600;1093;102991;-70
2021/06/13 11:10:48;;;;;;;9.27;3.03;;;;;;;16.83;56.71;98975.45;125570;1093;103470;-71
2021/06/13 11:13:30;;;;;;;12.03;3.83;;;;;;;16.76;56.56;98971.69;125568;1092;103090;-70
2021/06/13 11:16:02;;;;;;;10.97;3.80;;;;;;;16.68;56.54;98975.16;125537;1093;103058;-71
2021/06/13 11:18:40;;;;;;;11.33;3.57;;;;;;;16.60;56.12;98973.22;125473;1094;102971;-73
2021/06/13 11:21:21;;;;;;;17.03;4.17;;;;;;;16.55;56.40;98975.51;125585;1094;102938;-73
2021/06/13 11:23:54;;;;;;;10.83;3.40;;;;;;;16.54;56.44;98975.67;125526;1094;103084;-69
2021/06/13 11:26:31;;;;;;;9.90;3.45;;;;;;;16.57;56.21;98970.00;125568;1093;102932;-69
2021/06/13 11:29:00;;;;;;;12.73;4.00;;;;;;;16.60;56.31;98965.16;125427;1095;103380;-71
2021/06/13 11:31:29;;;;;;;9.70;3.23;;;;;;;16.65;56.30;98968.23;125607;1095;102998;-69